»·PEaware :: CGALT KLGB-KPMD

CGALT :: KLGB-KPMD

FLIGHT INFORMATION

Flight Status: Arrived
Operator: Unknown
More flights by this operator :: More flights under this callsign
Pilot: Anonymous 42436 (42436)
Aircraft: CIRRUS SR-22 TURBO
(S22T)
More flights by this aircraft type
Origin: KLGB Long Beach
United States
Destination: KPMD Palmdale AF Plant 42
United States
More flights between these airports :: More routes between these airports
Route: ANAHM1 DARTS V459 BERRI V201 PMD
File this flight plan on PilotEdge
Remarks:
Altitude:
(Current/Filed)
9,000ft
Speed:
(Current/Filed)
172kts
Departed: 19-Jun-23 06:37 PM
Arrived: 19-Jun-23 07:35 PM
Distance/Time
Traveled:
49nm/0:58
Distance/Time
To Go:
Arrived

Flight Plot

Page will automatically refresh every two minutes.

Flight plan parsing failed; only flown route is shown


Map Options




Map Legend


Flown Route
Filed Route
Departure Airport
Arrival Airport
Navaid (VOR, NDB)
Fix

Horizontal Profiles

Position Reports

Time Latitude Longitude Heading Altitude Ground
Speed
19-Jun-23 17:43 33.816979 -118.145973 89 34ft 0kts
19-Jun-23 17:44 33.816979 -118.145973 89 34ft 0kts
19-Jun-23 17:45 33.816979 -118.145973 89 34ft 0kts
19-Jun-23 17:46 33.816979 -118.145973 89 34ft 0kts
19-Jun-23 17:47 33.816979 -118.145973 89 34ft 0kts
19-Jun-23 17:48 33.816979 -118.145973 89 34ft 0kts
19-Jun-23 17:49 33.816979 -118.145973 89 34ft 0kts
19-Jun-23 17:50 33.816979 -118.145973 89 34ft 0kts
19-Jun-23 17:51 33.816979 -118.145973 89 34ft 0kts
19-Jun-23 17:52 33.816979 -118.145973 89 34ft 0kts
19-Jun-23 17:53 33.816979 -118.145973 89 34ft 0kts
19-Jun-23 17:54 33.816979 -118.145973 89 34ft 0kts
19-Jun-23 17:55 33.816979 -118.145973 89 34ft 0kts
19-Jun-23 17:56 33.816979 -118.145973 89 34ft 0kts
19-Jun-23 17:57 33.816979 -118.145973 89 34ft 0kts
19-Jun-23 17:58 33.816979 -118.145973 89 34ft 0kts
19-Jun-23 17:59 33.816979 -118.145973 89 34ft 0kts
19-Jun-23 18:00 33.816979 -118.145973 89 34ft 0kts
19-Jun-23 18:01 33.816979 -118.145973 89 34ft 0kts
19-Jun-23 18:02 33.816979 -118.145973 89 34ft 0kts
19-Jun-23 18:03 33.816978 -118.145973 89 34ft 0kts
19-Jun-23 18:04 33.816979 -118.145973 89 34ft 0kts
19-Jun-23 18:05 33.816979 -118.145973 89 34ft 0kts
19-Jun-23 18:06 33.816979 -118.145973 89 34ft 0kts
19-Jun-23 18:07 33.816979 -118.145973 89 34ft 0kts
19-Jun-23 18:08 33.816979 -118.145973 89 34ft 0kts
19-Jun-23 18:09 33.816979 -118.145973 89 34ft 0kts
19-Jun-23 18:10 33.816979 -118.145973 89 34ft 0kts
19-Jun-23 18:11 33.816979 -118.145973 89 34ft 0kts
19-Jun-23 18:12 33.816979 -118.145973 89 34ft 0kts
19-Jun-23 18:13 33.816979 -118.145973 89 34ft 0kts
19-Jun-23 18:14 33.816979 -118.145973 89 34ft 0kts
19-Jun-23 18:15 33.816979 -118.145973 89 34ft 0kts
19-Jun-23 18:16 33.816979 -118.145973 89 34ft 0kts
19-Jun-23 18:17 33.816979 -118.145973 89 34ft 0kts
19-Jun-23 18:18 33.816979 -118.145973 89 34ft 0kts
19-Jun-23 18:19 33.816979 -118.145973 89 34ft 0kts
19-Jun-23 18:20 33.816979 -118.145973 89 34ft 0kts
19-Jun-23 18:21 33.816979 -118.145973 89 34ft 0kts
19-Jun-23 18:22 33.816979 -118.145973 89 34ft 0kts
19-Jun-23 18:23 33.816979 -118.146208 269 35ft 3kts
19-Jun-23 18:24 33.817422 -118.146742 357 36ft 5kts
19-Jun-23 18:25 33.819606 -118.146736 2 36ft 8kts
19-Jun-23 18:26 33.820827 -118.146730 2 37ft 7kts
19-Jun-23 18:27 33.821505 -118.145747 87 37ft 6kts
19-Jun-23 18:28 33.821719 -118.144496 56 36ft 0kts
19-Jun-23 18:29 33.821719 -118.144496 56 36ft 0kts
19-Jun-23 18:30 33.821719 -118.144496 56 36ft 0kts
19-Jun-23 18:31 33.821719 -118.144496 56 36ft 0kts
19-Jun-23 18:32 33.821719 -118.144496 56 36ft 0kts
19-Jun-23 18:33 33.821719 -118.144496 56 36ft 0kts
19-Jun-23 18:34 33.821751 -118.144436 61 36ft 2kts
19-Jun-23 18:35 33.822731 -118.143723 261 36ft 3kts
19-Jun-23 18:36 33.822704 -118.156893 267 339ft 97kts
19-Jun-23 18:37 33.808873 -118.186715 211 1466ft 123kts
19-Jun-23 18:38 33.780316 -118.209459 211 2676ft 124kts
19-Jun-23 18:39 33.751956 -118.233439 237 3826ft 128kts
19-Jun-23 18:40 33.730465 -118.226478 73 4971ft 130kts
19-Jun-23 18:41 33.745610 -118.179300 68 5427ft 148kts
19-Jun-23 18:42 33.759191 -118.134867 68 6479ft 141kts
19-Jun-23 18:43 33.773295 -118.088175 69 7013ft 164kts
19-Jun-23 18:44 33.805013 -118.066367 332 7014ft 167kts
19-Jun-23 18:45 33.847069 -118.091257 333 6999ft 168kts
19-Jun-23 18:46 33.888480 -118.097021 57 6988ft 167kts
19-Jun-23 18:47 33.888653 -118.041311 91 7001ft 167kts
19-Jun-23 18:48 33.885679 -117.985144 91 6997ft 168kts
19-Jun-23 18:49 33.882637 -117.929149 91 6996ft 167kts
19-Jun-23 18:50 33.873936 -117.874229 101 6995ft 167kts
19-Jun-23 18:51 33.862309 -117.820178 102 6997ft 167kts
19-Jun-23 18:52 33.875004 -117.780580 349 7041ft 164kts
19-Jun-23 18:53 33.921044 -117.783809 354 6991ft 164kts
19-Jun-23 18:54 33.966574 -117.785116 355 6992ft 164kts
19-Jun-23 18:55 34.008598 -117.795407 290 7052ft 161kts
19-Jun-23 18:56 34.025592 -117.846536 287 6992ft 164kts
19-Jun-23 18:57 34.041272 -117.896765 286 7594ft 149kts
19-Jun-23 18:58 34.055543 -117.942969 285 8517ft 147kts
19-Jun-23 18:59 34.070210 -117.990948 285 8996ft 161kts
19-Jun-23 19:00 34.085870 -118.042491 286 8988ft 164kts
19-Jun-23 19:01 34.101750 -118.094391 286 8988ft 165kts
19-Jun-23 19:02 34.117391 -118.146101 285 8985ft 164kts
19-Jun-23 19:03 34.133105 -118.197823 285 8984ft 164kts
19-Jun-23 19:04 34.148871 -118.249534 285 8984ft 164kts
19-Jun-23 19:05 34.168662 -118.291825 346 8941ft 163kts
19-Jun-23 19:06 34.212519 -118.286449 24 8988ft 162kts
19-Jun-23 19:07 34.254421 -118.263436 22 9000ft 168kts
19-Jun-23 19:08 34.297416 -118.240750 22 9000ft 169kts
19-Jun-23 19:09 34.340566 -118.217957 22 8998ft 169kts
19-Jun-23 19:10 34.383592 -118.195258 22 9001ft 169kts
19-Jun-23 19:11 34.426734 -118.172429 22 8998ft 169kts
19-Jun-23 19:12 34.469832 -118.149621 22 8999ft 168kts
19-Jun-23 19:13 34.510168 -118.128233 22 8995ft 152kts
19-Jun-23 19:14 34.547549 -118.108949 21 8997ft 143kts
19-Jun-23 19:15 34.584159 -118.091045 20 8996ft 139kts
19-Jun-23 19:16 34.618539 -118.071686 26 9000ft 135kts
19-Jun-23 19:17 34.633651 -118.031374 83 8593ft 152kts
19-Jun-23 19:18 34.637027 -117.984709 84 7794ft 137kts
19-Jun-23 19:19 34.640682 -117.938701 82 6797ft 136kts
19-Jun-23 19:20 34.645284 -117.893848 82 5794ft 132kts
19-Jun-23 19:21 34.643469 -117.856905 114 5477ft 95kts
19-Jun-23 19:22 34.629546 -117.830594 124 5220ft 92kts
19-Jun-23 19:23 34.614000 -117.805755 125 5018ft 96kts
19-Jun-23 19:24 34.596780 -117.778220 111 5007ft 106kts
19-Jun-23 19:25 34.614424 -117.769551 307 5015ft 107kts
19-Jun-23 19:26 34.632965 -117.798266 311 5001ft 109kts
19-Jun-23 19:27 34.643270 -117.837256 272 4506ft 128kts
19-Jun-23 19:28 34.643001 -117.876926 265 4500ft 114kts
19-Jun-23 19:29 34.641046 -117.918032 265 4503ft 126kts
19-Jun-23 19:30 34.638948 -117.958026 265 4376ft 117kts
19-Jun-23 19:31 34.636827 -117.997829 265 3772ft 119kts
19-Jun-23 19:32 34.634755 -118.036401 266 3113ft 93kts
19-Jun-23 19:33 34.633294 -118.063216 263 2728ft 79kts
19-Jun-23 19:34 34.632170 -118.083607 223 2502ft 0kts

Navigation Log

Ident Type
Flight plan parsing failed, navigation log unavailable